createdAt,value
2018-06-05T00:00:16.928Z,20.90
2018-06-05T00:02:46.154Z,20.70
2018-06-05T00:05:15.479Z,20.70
2018-06-05T00:07:44.771Z,20.70
2018-06-05T00:10:14.048Z,20.50
2018-06-05T00:12:44.291Z,20.50
2018-06-05T00:15:13.538Z,20.50
2018-06-05T00:17:42.776Z,20.70
2018-06-05T00:20:12.172Z,20.70
2018-06-05T00:22:41.522Z,20.70
2018-06-05T00:25:10.749Z,20.70
2018-06-05T00:27:39.957Z,20.70
2018-06-05T00:30:09.181Z,20.70
2018-06-05T00:32:38.668Z,20.70
2018-06-05T00:37:36.699Z,20.90
2018-06-05T00:40:06.039Z,20.90
2018-06-05T00:42:35.393Z,21.10
2018-06-05T00:45:04.679Z,21.00
2018-06-05T00:47:33.913Z,20.90
2018-06-05T00:50:03.204Z,20.90
2018-06-05T00:52:32.537Z,20.90
2018-06-05T00:55:01.827Z,20.90
2018-06-05T00:57:31.149Z,21.00
2018-06-05T01:00:00.342Z,21.10
2018-06-05T01:02:29.656Z,21.00
2018-06-05T01:04:58.922Z,20.90
2018-06-05T01:07:28.238Z,20.90
2018-06-05T01:09:57.581Z,20.80
2018-06-05T01:12:26.874Z,20.90
2018-06-05T01:14:56.059Z,21.10
2018-06-05T01:17:25.260Z,21.00
2018-06-05T01:19:54.473Z,21.00
2018-06-05T01:22:23.778Z,21.00
2018-06-05T01:24:53.038Z,21.20
2018-06-05T01:27:22.299Z,21.30
2018-06-05T01:29:51.596Z,21.30
2018-06-05T01:32:20.908Z,21.20
2018-06-05T01:34:50.250Z,21.10
2018-06-05T01:37:19.507Z,21.10
2018-06-05T01:39:48.836Z,21.30
2018-06-05T01:42:18.065Z,21.30
2018-06-05T01:44:47.326Z,21.40
2018-06-05T01:47:16.677Z,21.40
2018-06-05T01:49:45.912Z,21.40
2018-06-05T01:52:15.154Z,21.40
2018-06-05T01:57:13.324Z,21.20
2018-06-05T01:59:42.556Z,21.30
2018-06-05T02:02:11.804Z,21.30
2018-06-05T02:04:41.294Z,21.30
2018-06-05T02:07:10.509Z,21.30
2018-06-05T02:09:39.753Z,21.50
2018-06-05T02:12:09.098Z,21.50
2018-06-05T02:14:38.336Z,21.40
2018-06-05T02:17:07.567Z,21.20
2018-06-05T02:19:36.858Z,21.10
2018-06-05T02:22:06.188Z,21.00
2018-06-05T02:24:35.439Z,20.90
2018-06-05T02:27:05.014Z,20.80
2018-06-05T02:29:34.266Z,20.70
2018-06-05T02:32:03.855Z,20.70
2018-06-05T02:34:33.224Z,20.70
2018-06-05T02:37:02.549Z,20.60
2018-06-05T02:39:31.779Z,20.60
2018-06-05T02:42:01.606Z,20.50
2018-06-05T02:44:30.913Z,20.50
2018-06-05T02:47:00.299Z,20.30
2018-06-05T02:49:29.591Z,20.70
2018-06-05T02:51:58.806Z,20.80
2018-06-05T02:54:28.039Z,20.70
2018-06-05T02:56:57.245Z,20.80
2018-06-05T02:59:26.574Z,20.80
2018-06-05T03:06:53.472Z,20.50
2018-06-05T03:09:22.863Z,20.40
2018-06-05T03:11:52.736Z,20.30
2018-06-05T03:14:21.940Z,20.30
2018-06-05T03:16:51.143Z,19.70
2018-06-05T03:19:21.141Z,20.30
2018-06-05T03:21:50.423Z,20.10
2018-06-05T03:24:19.670Z,20.10
2018-06-05T03:26:48.925Z,20.20
2018-06-05T03:29:18.109Z,20.20
2018-06-05T03:31:47.362Z,20.20
2018-06-05T03:34:16.656Z,20.30
2018-06-05T03:36:45.889Z,20.30
2018-06-05T03:39:15.125Z,20.30
2018-06-05T03:41:44.648Z,20.20
2018-06-05T03:44:13.955Z,19.90
2018-06-05T03:46:43.204Z,20.10
2018-06-05T03:49:12.420Z,20.00
2018-06-05T03:51:41.840Z,20.00
2018-06-05T03:54:11.056Z,20.00
2018-06-05T03:56:40.301Z,20.00
2018-06-05T03:59:09.584Z,19.80
2018-06-05T04:04:07.616Z,20.00
2018-06-05T04:06:36.903Z,19.90
2018-06-05T04:09:06.695Z,19.90
2018-06-05T04:11:36.036Z,20.00
2018-06-05T04:14:05.354Z,20.00
2018-06-05T04:16:34.594Z,20.00
2018-06-05T04:19:03.871Z,19.80
2018-06-05T04:21:33.159Z,20.00
2018-06-05T04:24:02.403Z,20.00
2018-06-05T04:29:00.416Z,20.20
2018-06-05T04:31:29.832Z,20.30
2018-06-05T04:33:59.077Z,20.20
2018-06-05T04:36:28.365Z,20.20
2018-06-05T04:38:57.600Z,20.30
2018-06-05T04:41:26.832Z,20.30
2018-06-05T04:43:56.274Z,20.40
2018-06-05T04:46:25.573Z,20.40
2018-06-05T04:48:54.813Z,20.50
2018-06-05T04:51:24.074Z,20.50
2018-06-05T04:53:53.314Z,20.40
2018-06-05T04:56:22.525Z,20.40
2018-06-05T04:58:51.772Z,20.40
2018-06-05T05:01:21.012Z,20.40
2018-06-05T05:03:50.224Z,20.20
2018-06-05T05:06:19.486Z,20.10
2018-06-05T05:08:48.732Z,20.00
2018-06-05T05:16:15.838Z,20.20
2018-06-05T05:18:45.229Z,19.70
2018-06-05T05:21:14.497Z,19.70
2018-06-05T05:23:43.917Z,20.00
2018-06-05T05:26:13.155Z,19.80
2018-06-05T05:28:43.388Z,19.90
2018-06-05T05:31:12.655Z,20.00
2018-06-05T05:33:42.970Z,19.70
2018-06-05T05:36:12.276Z,19.70
2018-06-05T05:38:41.503Z,19.70
2018-06-05T05:41:10.768Z,19.70
2018-06-05T05:43:40.136Z,19.70
2018-06-05T05:46:09.499Z,19.70
2018-06-05T05:48:39.523Z,19.70
2018-06-05T05:51:13.206Z,19.70
2018-06-05T05:53:42.569Z,19.70
2018-06-05T05:56:11.788Z,19.70
2018-06-05T05:58:41.184Z,19.70
2018-06-05T06:01:10.594Z,19.50
2018-06-05T06:03:39.896Z,19.60
2018-06-05T06:06:09.145Z,19.50
2018-06-05T06:08:38.408Z,19.60
2018-06-05T06:11:07.673Z,19.30
2018-06-05T06:13:37.515Z,19.30
2018-06-05T06:16:06.774Z,19.40
2018-06-05T06:18:36.012Z,19.60
2018-06-05T06:21:05.590Z,19.70
2018-06-05T06:23:34.871Z,19.50
2018-06-05T06:26:04.530Z,19.60
2018-06-05T06:28:33.768Z,19.20
2018-06-05T06:31:03.963Z,19.40
2018-06-05T06:33:33.165Z,19.50
2018-06-05T06:36:02.385Z,19.40
2018-06-05T06:38:31.654Z,19.30
2018-06-05T06:41:00.868Z,19.50
2018-06-05T06:43:30.389Z,19.50
2018-06-05T06:45:59.596Z,19.60
2018-06-05T06:48:29.105Z,19.70
2018-06-05T06:50:58.360Z,19.70
2018-06-05T06:53:27.761Z,19.70
2018-06-05T06:55:57.020Z,19.70
2018-06-05T07:00:55.068Z,19.90
2018-06-05T07:03:24.399Z,20.00
2018-06-05T07:05:54.412Z,19.90
2018-06-05T07:08:23.640Z,19.90
2018-06-05T07:10:52.945Z,19.70
2018-06-05T07:13:22.178Z,19.50
2018-06-05T07:17:17.225Z,19.60
2018-06-05T07:19:46.500Z,19.80
2018-06-05T07:22:15.978Z,19.60
2018-06-05T07:24:45.204Z,19.80
2018-06-05T07:29:43.280Z,19.80
2018-06-05T07:32:12.496Z,19.60
2018-06-05T07:34:41.696Z,19.40
2018-06-05T07:37:11.524Z,19.50
2018-06-05T07:39:40.739Z,19.60
2018-06-05T07:42:09.965Z,19.60
2018-06-05T07:44:39.295Z,19.40
2018-06-05T07:47:08.525Z,19.40
2018-06-05T07:49:37.773Z,19.50
2018-06-05T07:52:06.971Z,19.30
2018-06-05T07:54:36.239Z,19.60
2018-06-05T07:57:05.499Z,19.40
2018-06-05T07:59:34.800Z,19.60
2018-06-05T08:02:04.026Z,19.60
2018-06-05T08:04:33.220Z,19.60
2018-06-05T08:07:02.478Z,19.50
2018-06-05T08:09:32.979Z,19.50
2018-06-05T08:12:02.747Z,19.40
2018-06-05T08:14:33.291Z,19.60
2018-06-05T08:17:02.688Z,19.50
2018-06-05T08:19:32.473Z,19.50
2018-06-05T08:22:02.091Z,19.50
2018-06-05T08:24:31.570Z,19.50
2018-06-05T08:27:02.160Z,19.50
2018-06-05T08:29:31.712Z,19.50
2018-06-05T08:32:02.173Z,19.50
2018-06-05T08:34:31.670Z,19.60
2018-06-05T08:37:01.868Z,19.80
2018-06-05T08:39:31.243Z,19.70
2018-06-05T08:42:00.460Z,19.60
2018-06-05T08:44:29.726Z,19.80
2018-06-05T08:46:58.928Z,19.90
2018-06-05T08:49:28.275Z,19.70
2018-06-05T08:51:57.583Z,19.80
2018-06-05T08:54:26.960Z,19.80
2018-06-05T08:56:56.222Z,19.70
2018-06-05T08:59:25.492Z,19.80
2018-06-05T09:01:54.760Z,19.40
2018-06-05T09:04:24.067Z,19.90
2018-06-05T09:06:53.400Z,19.80
2018-06-05T09:09:22.635Z,19.50
2018-06-05T09:11:51.913Z,19.40
2018-06-05T09:14:21.595Z,19.40
2018-06-05T09:16:50.924Z,19.90
2018-06-05T09:19:20.264Z,19.90
2018-06-05T09:21:49.552Z,20.10
2018-06-05T09:24:18.868Z,20.40
2018-06-05T09:29:16.918Z,20.70
2018-06-05T09:31:46.205Z,20.80
2018-06-05T09:34:15.427Z,20.70
2018-06-05T09:36:44.687Z,20.50
2018-06-05T09:39:14.016Z,20.70
2018-06-05T09:41:43.294Z,20.60
2018-06-05T09:44:12.655Z,20.60
2018-06-05T09:46:41.924Z,20.20
2018-06-05T09:49:11.145Z,20.50
2018-06-05T09:51:40.399Z,20.50
2018-06-05T09:54:09.612Z,20.40
2018-06-05T09:56:38.936Z,20.40
2018-06-05T09:59:08.285Z,20.50
2018-06-05T10:01:37.674Z,20.70
2018-06-05T10:04:07.038Z,20.90
2018-06-05T10:06:36.327Z,21.00
2018-06-05T10:09:06.979Z,21.10
2018-06-05T10:11:36.275Z,21.20
2018-06-05T10:14:05.639Z,21.00
2018-06-05T10:16:35.058Z,20.90
2018-06-05T10:19:04.382Z,20.80
2018-06-05T10:21:33.702Z,20.70
2018-06-05T10:24:03.680Z,20.80
2018-06-05T10:26:32.999Z,20.30
2018-06-05T10:29:02.483Z,20.50
2018-06-05T10:31:31.739Z,20.80
2018-06-05T10:34:00.968Z,20.90
2018-06-05T10:36:30.272Z,20.60
2018-06-05T10:38:59.696Z,20.90
2018-06-05T10:41:28.972Z,20.80
2018-06-05T10:43:58.273Z,20.60
2018-06-05T10:46:27.883Z,20.50
2018-06-05T10:48:57.245Z,20.50
2018-06-05T10:51:26.520Z,20.90
2018-06-05T10:53:55.838Z,20.80
2018-06-05T10:56:25.094Z,20.70
2018-06-05T10:58:54.311Z,20.60
2018-06-05T11:01:23.671Z,20.60
2018-06-05T11:03:52.911Z,20.60
2018-06-05T11:06:22.325Z,20.60
2018-06-05T11:08:51.707Z,20.60
2018-06-05T11:13:49.897Z,20.90
2018-06-05T11:16:19.145Z,21.10
2018-06-05T11:18:48.468Z,21.30
2018-06-05T11:21:17.752Z,21.40
2018-06-05T11:23:47.130Z,21.30
2018-06-05T11:26:16.520Z,21.10
2018-06-05T11:28:45.761Z,21.30
2018-06-05T11:31:15.484Z,21.10
2018-06-05T11:33:44.717Z,21.00
2018-06-05T11:36:14.572Z,21.00
2018-06-05T11:38:44.307Z,20.90
2018-06-05T11:41:15.135Z,20.90
2018-06-05T11:43:45.467Z,21.00
2018-06-05T11:46:15.265Z,21.00
2018-06-05T11:48:46.160Z,20.80
2018-06-05T11:51:15.577Z,21.10
2018-06-05T11:53:44.885Z,21.00
2018-06-05T11:58:42.959Z,21.20
2018-06-05T12:01:12.371Z,21.20
2018-06-05T12:03:41.619Z,21.20
2018-06-05T12:06:10.900Z,21.20
2018-06-05T12:08:41.226Z,21.20
2018-06-05T12:11:10.565Z,21.10
2018-06-05T12:13:39.833Z,21.20
2018-06-05T12:16:09.122Z,21.30
2018-06-05T12:18:38.457Z,21.10
2018-06-05T12:21:11.861Z,21.00
2018-06-05T12:23:41.191Z,21.00
2018-06-05T12:26:10.489Z,21.00
2018-06-05T12:28:40.265Z,21.00
2018-06-05T12:31:09.576Z,21.10
2018-06-05T12:33:40.153Z,21.10
2018-06-05T12:36:09.707Z,21.20
2018-06-05T12:38:39.191Z,21.30
2018-06-05T12:41:08.749Z,21.40
2018-06-05T12:43:38.862Z,21.40
2018-06-05T12:46:08.326Z,21.30
2018-06-05T12:48:37.604Z,21.20
2018-06-05T12:51:06.901Z,21.10
2018-06-05T12:53:37.603Z,21.10
2018-06-05T12:56:06.962Z,21.20
2018-06-05T12:58:37.249Z,21.20
2018-06-05T13:01:07.942Z,21.20
2018-06-05T13:03:37.540Z,21.20
2018-06-05T13:06:06.994Z,21.30
2018-06-05T13:08:36.307Z,21.30
2018-06-05T13:11:05.647Z,21.30
2018-06-05T13:13:34.986Z,21.40
2018-06-05T13:16:04.343Z,21.40
2018-06-05T13:18:33.622Z,21.50
2018-06-05T13:21:02.939Z,21.60
2018-06-05T13:23:32.288Z,21.70
2018-06-05T13:26:01.673Z,21.70
2018-06-05T13:28:31.059Z,21.70
2018-06-05T13:31:00.472Z,21.80
2018-06-05T13:33:29.746Z,22.00
2018-06-05T13:35:59.017Z,22.10
2018-06-05T13:40:58.020Z,22.40
2018-06-05T13:43:27.212Z,22.40
2018-06-05T13:45:56.459Z,22.50
2018-06-05T13:48:25.809Z,22.60
2018-06-05T13:50:55.195Z,22.70
2018-06-05T13:53:24.548Z,22.80
2018-06-05T13:55:54.503Z,22.70
2018-06-05T13:58:24.007Z,22.60
2018-06-05T14:00:53.491Z,22.40
2018-06-05T14:03:22.691Z,22.50
2018-06-05T14:05:52.014Z,22.80
2018-06-05T14:08:21.308Z,22.80
2018-06-05T14:54:33.831Z,23.10
2018-06-05T14:57:03.040Z,21.40
2018-06-05T15:04:29.920Z,22.20
2018-06-05T15:09:28.197Z,22.70
2018-06-05T15:11:58.437Z,23.00
2018-06-05T15:14:27.751Z,23.30
2018-06-05T15:16:57.160Z,23.50
2018-06-05T15:19:26.544Z,23.50
2018-06-05T15:21:55.853Z,23.50
2018-06-05T15:24:26.160Z,23.60
2018-06-05T15:26:55.431Z,23.60
2018-06-05T15:29:24.805Z,23.60
2018-06-05T15:31:54.274Z,23.70
2018-06-05T15:34:23.528Z,23.80
2018-06-05T15:36:52.911Z,23.70
2018-06-05T15:39:22.221Z,23.70
2018-06-05T15:41:51.517Z,23.90
2018-06-05T15:44:20.780Z,24.10
2018-06-05T15:46:50.195Z,24.20
2018-06-05T15:49:19.437Z,24.40
2018-06-05T15:51:48.692Z,24.30
2018-06-05T15:54:18.058Z,24.00
2018-06-05T15:59:17.183Z,23.70
2018-06-05T16:01:46.419Z,23.60
2018-06-05T16:04:15.836Z,23.70
2018-06-05T16:06:45.129Z,23.70
2018-06-05T16:09:14.504Z,23.70
2018-06-05T16:14:12.636Z,24.00
2018-06-05T16:16:42.413Z,24.10
2018-06-05T16:19:11.654Z,24.30
2018-06-05T16:21:40.888Z,24.50
2018-06-05T16:24:10.221Z,24.60
2018-06-05T16:26:39.576Z,24.50
2018-06-05T16:29:08.794Z,24.30
2018-06-05T16:31:38.596Z,24.20
2018-06-05T16:34:07.958Z,24.00
2018-06-05T16:36:37.200Z,23.90
2018-06-05T16:39:08.300Z,23.70
2018-06-05T16:41:37.586Z,23.60
2018-06-05T16:44:07.023Z,23.50
2018-06-05T16:46:36.804Z,23.50
2018-06-05T16:49:06.170Z,23.40
2018-06-05T16:51:35.418Z,23.40
2018-06-05T16:54:04.839Z,23.40
2018-06-05T16:56:34.161Z,23.40
2018-06-05T16:59:03.590Z,23.30
2018-06-05T17:01:32.869Z,23.30
2018-06-05T17:04:02.200Z,23.30
2018-06-05T17:06:31.530Z,23.30
2018-06-05T17:09:00.875Z,23.30
2018-06-05T17:11:30.184Z,23.20
2018-06-05T17:16:28.477Z,23.30
2018-06-05T17:18:58.852Z,23.30
2018-06-05T17:21:28.756Z,23.40
2018-06-05T17:23:58.307Z,23.40
2018-06-05T17:26:27.588Z,23.30
2018-06-05T17:28:57.573Z,23.40
2018-06-05T17:33:55.735Z,23.30
2018-06-05T17:36:25.106Z,23.30
2018-06-05T17:38:54.361Z,23.30
2018-06-05T17:42:27.144Z,23.30
2018-06-05T17:44:56.382Z,23.30
2018-06-05T17:47:25.661Z,23.20
2018-06-05T17:49:54.928Z,23.00
2018-06-05T17:54:52.971Z,23.00
2018-06-05T17:57:22.406Z,23.00
2018-06-05T17:59:51.689Z,23.00
2018-06-05T18:02:21.045Z,23.00
2018-06-05T18:04:50.452Z,23.10
2018-06-05T18:07:19.918Z,23.10
2018-06-05T18:09:49.255Z,23.20
2018-06-05T18:14:47.398Z,23.00
2018-06-05T18:17:16.663Z,23.00
2018-06-05T18:19:46.014Z,23.00
2018-06-05T18:22:15.247Z,22.90
2018-06-05T18:24:44.564Z,22.80
2018-06-05T18:27:13.859Z,22.70
2018-06-05T18:29:43.228Z,22.80
2018-06-05T18:32:12.522Z,22.70
2018-06-05T18:34:42.461Z,22.70
2018-06-05T18:37:11.914Z,22.60
2018-06-05T18:39:41.669Z,22.60
2018-06-05T18:42:11.776Z,22.60
2018-06-05T18:44:42.375Z,22.70
2018-06-05T18:47:12.497Z,22.80
2018-06-05T18:52:10.780Z,22.90
2018-06-05T18:54:40.059Z,22.90
2018-06-05T18:57:09.273Z,22.90
2018-06-05T18:59:38.644Z,22.90
2018-06-05T19:02:07.968Z,22.80
2018-06-05T19:04:37.320Z,22.70
2018-06-05T19:07:06.653Z,22.70
2018-06-05T19:09:36.029Z,22.60
2018-06-05T19:14:34.343Z,22.70
2018-06-05T19:17:04.680Z,22.70
2018-06-05T19:19:34.006Z,22.70
2018-06-05T19:22:03.280Z,22.80
2018-06-05T19:24:32.709Z,22.80
2018-06-05T19:27:01.994Z,22.80
2018-06-05T19:29:31.253Z,22.80
2018-06-05T19:32:00.467Z,22.60
2018-06-05T19:34:29.732Z,22.70
2018-06-05T19:36:59.005Z,22.60
2018-06-05T19:39:28.350Z,22.60
2018-06-05T19:41:57.592Z,22.50
2018-06-05T19:44:26.834Z,22.50
2018-06-05T19:46:56.624Z,22.50
2018-06-05T19:49:25.943Z,22.60
2018-06-05T19:51:55.228Z,22.70
2018-06-05T19:56:53.541Z,22.50
2018-06-05T19:59:22.830Z,22.50
2018-06-05T20:01:52.660Z,22.50
2018-06-05T20:04:22.529Z,22.40
2018-06-05T20:06:52.736Z,22.50
2018-06-05T20:09:22.076Z,22.60
2018-06-05T20:11:51.357Z,22.70
2018-06-05T20:14:20.651Z,22.70
2018-06-05T20:16:50.041Z,22.70
2018-06-05T20:19:19.315Z,22.80
2018-06-05T20:21:49.288Z,22.90
2018-06-05T20:24:18.589Z,22.90
2018-06-05T20:26:48.489Z,22.90
2018-06-05T20:29:17.986Z,22.90
2018-06-05T20:31:47.257Z,23.00
2018-06-05T20:34:16.518Z,22.90
2018-06-05T20:36:45.885Z,22.90
2018-06-05T20:39:15.156Z,22.80
2018-06-05T20:41:44.509Z,22.80
2018-06-05T20:44:13.926Z,22.70
2018-06-05T20:46:43.207Z,22.60
2018-06-05T20:49:13.017Z,22.50
2018-06-05T20:51:42.313Z,22.50
2018-06-05T20:54:17.195Z,22.40
2018-06-05T20:56:46.913Z,22.30
2018-06-05T20:59:16.251Z,22.20
2018-06-05T21:01:45.626Z,22.10
2018-06-05T21:04:15.009Z,22.10
2018-06-05T21:06:44.339Z,22.20
2018-06-05T21:09:13.738Z,22.30
2018-06-05T21:11:43.135Z,22.30
2018-06-05T21:14:12.605Z,22.20
2018-06-05T21:19:10.988Z,22.20
2018-06-05T21:21:40.295Z,22.30
2018-06-05T21:24:10.394Z,22.30
2018-06-05T21:26:39.848Z,22.30
2018-06-05T21:29:09.296Z,22.30
2018-06-05T21:31:38.631Z,22.20
2018-06-05T21:34:08.098Z,22.30
2018-06-05T21:36:37.342Z,22.20
2018-06-05T21:39:09.491Z,22.20
2018-06-05T21:41:38.849Z,22.20
2018-06-05T21:44:08.163Z,22.30
2018-06-05T21:46:37.468Z,22.30
2018-06-05T21:49:06.802Z,22.30
2018-06-05T21:51:36.773Z,22.30
2018-06-05T21:54:06.561Z,22.40
2018-06-05T21:56:35.838Z,22.30
2018-06-05T21:59:05.324Z,22.20
2018-06-05T22:01:34.529Z,22.20
2018-06-05T22:04:03.837Z,22.10
2018-06-05T22:06:33.101Z,22.00
2018-06-05T22:11:32.391Z,21.90
2018-06-05T22:14:01.686Z,21.80
2018-06-05T22:16:30.972Z,21.80
2018-06-05T22:19:00.418Z,21.80
2018-06-05T22:21:29.664Z,21.80
2018-06-05T22:23:59.028Z,21.80
2018-06-05T22:26:28.317Z,21.80
2018-06-05T22:28:57.683Z,21.80
2018-06-05T22:31:27.043Z,21.80
2018-06-05T22:33:56.348Z,21.90
2018-06-05T22:36:25.669Z,21.90
2018-06-05T22:38:55.729Z,21.90
2018-06-05T22:41:24.992Z,21.90
2018-06-05T22:43:54.831Z,22.00
2018-06-05T22:46:24.083Z,21.90
2018-06-05T22:48:53.370Z,21.90
2018-06-05T22:51:22.766Z,21.90
2018-06-05T22:53:52.269Z,21.90
2018-06-05T22:56:21.532Z,21.90
2018-06-05T22:58:50.826Z,21.80
2018-06-05T23:03:49.448Z,21.70
2018-06-05T23:06:18.717Z,21.50
2018-06-05T23:08:48.036Z,21.50
2018-06-05T23:11:17.371Z,21.50
2018-06-05T23:13:46.596Z,21.50
2018-06-05T23:16:15.881Z,21.50
2018-06-05T23:18:45.168Z,21.50
2018-06-05T23:21:14.406Z,21.50
2018-06-05T23:23:43.649Z,21.40
2018-06-05T23:26:12.891Z,21.40
2018-06-05T23:28:42.336Z,21.30
2018-06-05T23:31:11.570Z,21.20
2018-06-05T23:33:40.792Z,21.20
2018-06-05T23:36:10.069Z,21.20
2018-06-05T23:38:39.338Z,21.20
2018-06-05T23:41:08.699Z,21.10
2018-06-05T23:43:37.979Z,21.10
2018-06-05T23:46:07.230Z,21.10
2018-06-05T23:48:36.512Z,21.10
2018-06-05T23:51:05.836Z,21.30
2018-06-05T23:53:35.058Z,21.30
2018-06-05T23:56:04.305Z,21.20
2018-06-05T23:58:33.591Z,21.10
